createdAt,value
2018-10-02T00:00:13.120Z,8.45
2018-10-02T00:01:13.108Z,8.41
2018-10-02T00:02:13.099Z,8.45
2018-10-02T00:03:13.088Z,8.41
2018-10-02T00:04:13.078Z,8.36
2018-10-02T00:05:13.068Z,8.34
2018-10-02T00:06:13.058Z,8.37
2018-10-02T00:07:13.046Z,8.41
2018-10-02T00:08:13.037Z,8.26
2018-10-02T00:09:13.026Z,8.27
2018-10-02T00:10:13.016Z,8.27
2018-10-02T00:11:13.006Z,8.27
2018-10-02T00:12:12.995Z,8.36
2018-10-02T00:13:12.984Z,8.36
2018-10-02T00:14:12.975Z,8.42
2018-10-02T00:15:12.964Z,8.36
2018-10-02T00:16:12.956Z,8.26
2018-10-02T00:17:12.944Z,8.36
2018-10-02T00:18:12.933Z,8.33
2018-10-02T00:19:12.922Z,8.20
2018-10-02T00:20:12.915Z,8.20
2018-10-02T00:21:12.902Z,8.24
2018-10-02T00:22:12.891Z,8.26
2018-10-02T00:23:13.131Z,8.16
2018-10-02T00:24:12.870Z,8.28
2018-10-02T00:25:12.860Z,8.20
2018-10-02T00:26:12.850Z,8.33
2018-10-02T00:27:12.839Z,8.27
2018-10-02T00:28:12.828Z,8.30
2018-10-02T00:29:12.817Z,8.31
2018-10-02T00:30:12.808Z,8.30
2018-10-02T00:31:12.796Z,8.36
2018-10-02T00:32:12.997Z,8.28
2018-10-02T00:33:12.776Z,8.31
2018-10-02T00:34:12.766Z,8.36
2018-10-02T00:35:12.755Z,8.24
2018-10-02T00:36:12.745Z,8.20
2018-10-02T00:37:12.737Z,8.24
2018-10-02T00:38:12.724Z,8.20
2018-10-02T00:39:12.713Z,8.16
2018-10-02T00:40:12.703Z,8.18
2018-10-02T00:41:12.693Z,8.23
2018-10-02T00:42:12.683Z,8.19
2018-10-02T00:43:12.672Z,8.18
2018-10-02T00:44:12.665Z,8.18
2018-10-02T00:45:12.651Z,8.23
2018-10-02T00:46:12.640Z,8.19
2018-10-02T00:47:12.628Z,8.15
2018-10-02T00:48:12.620Z,8.20
2018-10-02T00:49:12.607Z,8.24
2018-10-02T00:50:12.847Z,8.19
2018-10-02T00:51:12.586Z,8.23
2018-10-02T00:52:12.577Z,8.18
2018-10-02T00:53:12.565Z,8.20
2018-10-02T00:54:12.555Z,8.19
2018-10-02T00:55:12.544Z,8.20
2018-10-02T00:56:12.534Z,8.26
2018-10-02T00:57:12.525Z,8.16
2018-10-02T00:58:12.514Z,8.18
2018-10-02T00:59:12.501Z,8.19
2018-10-02T01:00:12.491Z,8.20
2018-10-02T01:01:12.480Z,8.16
2018-10-02T01:02:12.470Z,8.23
2018-10-02T01:03:12.458Z,8.16
2018-10-02T01:04:12.448Z,8.15
2018-10-02T01:05:12.439Z,8.13
2018-10-02T01:06:12.428Z,8.20
2018-10-02T01:07:12.416Z,8.23
2018-10-02T01:08:12.406Z,8.26
2018-10-02T01:09:12.394Z,8.24
2018-10-02T01:10:12.384Z,8.24
2018-10-02T01:11:12.374Z,8.18
2018-10-02T01:12:12.363Z,8.15
2018-10-02T01:13:12.352Z,8.15
2018-10-02T01:14:12.342Z,8.18
2018-10-02T01:15:12.330Z,8.20
2018-10-02T01:16:12.322Z,8.33
2018-10-02T01:17:12.309Z,8.33
2018-10-02T01:18:12.298Z,8.31
2018-10-02T01:19:12.288Z,8.24
2018-10-02T01:20:12.527Z,8.30
2018-10-02T01:21:12.322Z,8.31
2018-10-02T01:22:12.256Z,8.20
2018-10-02T01:23:12.245Z,8.30
2018-10-02T01:24:12.235Z,8.28
2018-10-02T01:25:12.225Z,8.24
2018-10-02T01:26:12.218Z,8.27
2018-10-02T01:27:12.203Z,8.34
2018-10-02T01:28:12.192Z,8.30
2018-10-02T01:29:12.183Z,8.28
2018-10-02T01:30:12.172Z,8.28
2018-10-02T01:31:12.165Z,8.31
2018-10-02T01:32:12.151Z,8.42
2018-10-02T01:33:12.139Z,8.37
2018-10-02T01:34:12.128Z,8.33
2018-10-02T01:35:12.118Z,8.37
2018-10-02T01:36:12.107Z,8.30
2018-10-02T01:37:12.098Z,8.41
2018-10-02T01:38:12.086Z,8.41
2018-10-02T01:39:12.075Z,8.41
2018-10-02T01:40:12.065Z,8.44
2018-10-02T01:41:12.055Z,8.41
2018-10-02T01:42:12.045Z,8.41
2018-10-02T01:43:12.032Z,8.41
2018-10-02T01:44:12.023Z,8.41
2018-10-02T01:45:12.013Z,8.42
2018-10-02T01:46:12.003Z,8.42
2018-10-02T01:47:11.991Z,8.51
2018-10-02T01:48:11.983Z,8.41
2018-10-02T01:49:11.972Z,8.36
2018-10-02T01:50:11.960Z,8.38
2018-10-02T01:51:11.949Z,8.37
2018-10-02T01:52:11.939Z,8.34
2018-10-02T01:53:11.928Z,8.41
2018-10-02T01:54:11.918Z,8.37
2018-10-02T01:55:11.910Z,8.31
2018-10-02T01:56:11.896Z,8.27
2018-10-02T01:57:11.889Z,8.30
2018-10-02T01:58:11.875Z,8.27
2018-10-02T01:59:11.868Z,8.30
2018-10-02T02:00:11.853Z,8.38
2018-10-02T02:01:11.843Z,8.30
2018-10-02T02:02:11.831Z,8.37
2018-10-02T02:03:11.821Z,8.28
2018-10-02T02:04:11.810Z,8.28
2018-10-02T02:05:11.801Z,8.23
2018-10-02T02:06:11.790Z,8.34
2018-10-02T02:07:11.778Z,8.36
2018-10-02T02:08:11.768Z,8.30
2018-10-02T02:09:11.761Z,8.27
2018-10-02T02:10:11.747Z,8.26
2018-10-02T02:11:11.735Z,8.38
2018-10-02T02:12:11.724Z,8.28
2018-10-02T02:13:11.714Z,8.28
2018-10-02T02:14:11.702Z,8.30
2018-10-02T02:15:11.692Z,8.42
2018-10-02T02:16:11.682Z,8.26
2018-10-02T02:17:11.671Z,8.28
2018-10-02T02:18:11.663Z,8.30
2018-10-02T02:19:11.649Z,8.26
2018-10-02T02:20:11.638Z,8.31
2018-10-02T02:21:11.628Z,8.42
2018-10-02T02:22:11.617Z,8.27
2018-10-02T02:23:11.606Z,8.28
2018-10-02T02:24:11.595Z,8.28
2018-10-02T02:25:11.585Z,8.27
2018-10-02T02:26:11.573Z,8.28
2018-10-02T02:27:11.563Z,8.27
2018-10-02T02:28:11.554Z,8.30
2018-10-02T02:29:11.540Z,8.31
2018-10-02T02:30:11.541Z,8.31
2018-10-02T02:31:11.519Z,8.30
2018-10-02T02:32:11.509Z,8.33
2018-10-02T02:33:11.499Z,8.26
2018-10-02T02:34:11.489Z,8.34
2018-10-02T02:35:11.477Z,8.42
2018-10-02T02:36:11.465Z,8.33
2018-10-02T02:37:11.460Z,8.31
2018-10-02T02:38:11.444Z,8.27
2018-10-02T02:39:11.436Z,8.38
2018-10-02T02:40:11.423Z,8.28
2018-10-02T02:41:11.410Z,8.37
2018-10-02T02:42:11.401Z,8.27
2018-10-02T02:43:11.389Z,8.31
2018-10-02T02:44:11.381Z,8.30
2018-10-02T02:45:11.369Z,8.31
2018-10-02T02:46:11.358Z,8.33
2018-10-02T02:47:11.346Z,8.31
2018-10-02T02:48:11.339Z,8.34
2018-10-02T02:49:11.325Z,8.28
2018-10-02T02:50:11.315Z,8.28
2018-10-02T02:51:11.303Z,8.27
2018-10-02T02:52:11.292Z,8.27
2018-10-02T02:53:11.282Z,8.30
2018-10-02T02:54:11.270Z,8.30
2018-10-02T02:55:11.261Z,8.31
2018-10-02T02:56:11.249Z,8.28
2018-10-02T02:57:11.490Z,8.42
2018-10-02T02:58:11.229Z,8.34
2018-10-02T02:59:11.217Z,8.38
2018-10-02T03:00:11.206Z,8.34
2018-10-02T03:01:11.195Z,8.36
2018-10-02T03:02:11.185Z,8.37
2018-10-02T03:03:11.175Z,8.41
2018-10-02T03:04:11.164Z,8.37
2018-10-02T03:05:11.154Z,8.38
2018-10-02T03:06:11.142Z,8.41
2018-10-02T03:07:11.130Z,8.45
2018-10-02T03:08:11.120Z,8.42
2018-10-02T03:09:11.109Z,8.44
2018-10-02T03:10:11.100Z,8.42
2018-10-02T03:11:11.086Z,8.42
2018-10-02T03:12:11.076Z,8.42
2018-10-02T03:13:11.067Z,8.42
2018-10-02T03:14:11.055Z,8.44
2018-10-02T03:15:11.044Z,8.45
2018-10-02T03:16:11.034Z,8.41
2018-10-02T03:17:11.024Z,8.44
2018-10-02T03:18:11.011Z,8.42
2018-10-02T03:19:11.000Z,8.56
2018-10-02T03:20:10.990Z,8.42
2018-10-02T03:21:10.979Z,8.37
2018-10-02T03:22:10.969Z,8.45
2018-10-02T03:23:10.957Z,8.53
2018-10-02T03:24:11.196Z,8.49
2018-10-02T03:25:10.936Z,8.46
2018-10-02T03:26:10.932Z,8.46
2018-10-02T03:27:10.914Z,8.48
2018-10-02T03:28:10.903Z,8.44
2018-10-02T03:29:10.893Z,8.53
2018-10-02T03:30:10.886Z,8.46
2018-10-02T03:31:10.883Z,8.42
2018-10-02T03:32:10.860Z,8.38
2018-10-02T03:33:10.850Z,8.53
2018-10-02T03:34:10.844Z,8.45
2018-10-02T03:35:10.829Z,8.41
2018-10-02T03:36:10.817Z,8.46
2018-10-02T03:37:10.808Z,8.48
2018-10-02T03:38:10.795Z,8.42
2018-10-02T03:39:10.785Z,8.48
2018-10-02T03:40:10.774Z,8.46
2018-10-02T03:41:10.766Z,8.44
2018-10-02T03:42:10.754Z,8.42
2018-10-02T03:43:10.750Z,8.53
2018-10-02T03:44:10.731Z,8.49
2018-10-02T03:45:10.721Z,8.42
2018-10-02T03:46:10.710Z,8.48
2018-10-02T03:47:10.699Z,8.49
2018-10-02T03:48:10.688Z,8.45
2018-10-02T03:49:10.680Z,8.49
2018-10-02T03:50:10.672Z,8.48
2018-10-02T03:51:10.655Z,8.60
2018-10-02T03:52:10.645Z,8.52
2018-10-02T03:53:10.634Z,8.58
2018-10-02T03:54:10.623Z,8.56
2018-10-02T03:55:10.625Z,8.60
2018-10-02T03:56:10.608Z,8.55
2018-10-02T03:57:10.591Z,8.51
2018-10-02T03:58:10.580Z,8.49
2018-10-02T03:59:10.569Z,8.53
2018-10-02T04:00:10.558Z,8.53
2018-10-02T04:01:10.549Z,8.48
2018-10-02T04:02:10.537Z,8.55
2018-10-02T04:03:10.532Z,8.51
2018-10-02T04:04:10.516Z,8.45
2018-10-02T04:05:10.504Z,8.46
2018-10-02T04:06:10.494Z,8.51
2018-10-02T04:07:10.481Z,8.56
2018-10-02T04:08:10.473Z,8.55
2018-10-02T04:09:10.464Z,8.49
2018-10-02T04:10:10.450Z,8.48
2018-10-02T04:11:10.438Z,8.55
2018-10-02T04:12:10.445Z,8.52
2018-10-02T04:13:10.427Z,8.55
2018-10-02T04:14:10.407Z,8.55
2018-10-02T04:15:10.395Z,8.58
2018-10-02T04:16:10.384Z,8.58
2018-10-02T04:17:10.375Z,8.51
2018-10-02T04:18:10.365Z,8.58
2018-10-02T04:19:10.352Z,8.55
2018-10-02T04:20:10.341Z,8.51
2018-10-02T04:21:10.331Z,8.60
2018-10-02T04:22:10.320Z,8.52
2018-10-02T04:23:10.309Z,8.53
2018-10-02T04:24:10.297Z,8.60
2018-10-02T04:25:10.286Z,8.48
2018-10-02T04:26:10.277Z,8.58
2018-10-02T04:27:10.265Z,8.55
2018-10-02T04:28:10.291Z,8.55
2018-10-02T04:29:10.244Z,8.63
2018-10-02T04:30:10.233Z,8.66
2018-10-02T04:31:10.222Z,8.60
2018-10-02T04:32:10.214Z,8.67
2018-10-02T04:33:10.200Z,8.61
2018-10-02T04:34:10.269Z,8.63
2018-10-02T04:35:10.178Z,8.73
2018-10-02T04:36:10.173Z,8.67
2018-10-02T04:37:10.157Z,8.64
2018-10-02T04:38:10.146Z,8.74
2018-10-02T04:39:10.133Z,8.74
2018-10-02T04:40:10.124Z,8.76
2018-10-02T04:41:10.113Z,8.74
2018-10-02T04:42:10.101Z,8.71
2018-10-02T04:43:10.091Z,8.73
2018-10-02T04:44:10.080Z,8.71
2018-10-02T04:45:10.070Z,8.76
2018-10-02T04:46:10.059Z,8.82
2018-10-02T04:47:10.050Z,8.85
2018-10-02T04:48:10.037Z,8.85
2018-10-02T04:49:10.027Z,8.87
2018-10-02T04:50:10.017Z,8.82
2018-10-02T04:51:10.006Z,8.81
2018-10-02T04:52:09.994Z,8.78
2018-10-02T04:53:09.983Z,8.79
2018-10-02T04:54:09.972Z,8.82
2018-10-02T04:55:10.064Z,8.89
2018-10-02T04:56:10.087Z,8.84
2018-10-02T04:57:09.940Z,8.76
2018-10-02T04:58:09.929Z,8.91
2018-10-02T04:59:09.916Z,8.84
2018-10-02T05:00:09.907Z,8.82
2018-10-02T05:01:09.899Z,8.85
2018-10-02T05:02:09.902Z,8.88
2018-10-02T05:03:09.875Z,8.91
2018-10-02T05:04:09.864Z,8.84
2018-10-02T05:05:09.854Z,8.84
2018-10-02T05:06:09.848Z,8.92
2018-10-02T05:07:09.831Z,8.95
2018-10-02T05:08:09.833Z,8.94
2018-10-02T05:09:09.810Z,8.99
2018-10-02T05:10:09.800Z,8.94
2018-10-02T05:11:09.788Z,8.94
2018-10-02T05:12:09.778Z,8.88
2018-10-02T05:13:09.767Z,8.92
2018-10-02T05:14:09.817Z,9.02
2018-10-02T05:15:09.746Z,8.99
2018-10-02T05:16:09.740Z,8.97
2018-10-02T05:17:09.724Z,8.99
2018-10-02T05:18:09.713Z,8.99
2018-10-02T05:19:09.702Z,8.94
2018-10-02T05:20:09.692Z,9.00
2018-10-02T05:21:09.682Z,9.04
2018-10-02T05:22:09.873Z,9.08
2018-10-02T05:23:09.662Z,9.18
2018-10-02T05:24:09.649Z,9.10
2018-10-02T05:25:09.638Z,9.18
2018-10-02T05:26:09.630Z,9.13
2018-10-02T05:27:09.623Z,9.13
2018-10-02T05:28:09.608Z,9.11
2018-10-02T05:29:09.596Z,9.11
2018-10-02T05:30:09.586Z,9.19
2018-10-02T05:31:09.776Z,9.21
2018-10-02T05:32:09.563Z,9.23
2018-10-02T05:33:09.553Z,9.21
2018-10-02T05:34:09.543Z,9.23
2018-10-02T05:35:09.642Z,9.28
2018-10-02T05:36:09.524Z,9.19
2018-10-02T05:37:09.510Z,9.25
2018-10-02T05:38:09.503Z,9.25
2018-10-02T05:39:09.488Z,9.19
2018-10-02T05:40:09.478Z,9.18
2018-10-02T05:41:09.468Z,9.25
2018-10-02T05:42:09.465Z,9.26
2018-10-02T05:43:09.446Z,9.29
2018-10-02T05:44:09.436Z,9.23
2018-10-02T05:45:09.424Z,9.25
2018-10-02T05:46:09.414Z,9.29
2018-10-02T05:47:09.403Z,9.22
2018-10-02T05:48:09.392Z,9.22
2018-10-02T05:49:09.384Z,9.28
2018-10-02T05:51:09.364Z,9.18
2018-10-02T05:52:09.350Z,9.21
2018-10-02T05:53:09.339Z,9.29
2018-10-02T05:54:09.328Z,9.18
2018-10-02T05:55:09.316Z,9.23
2018-10-02T05:56:09.311Z,9.29
2018-10-02T05:57:09.297Z,9.28
2018-10-02T05:58:09.329Z,9.28
2018-10-02T05:59:09.275Z,9.25
2018-10-02T06:00:09.270Z,9.31
2018-10-02T06:01:09.458Z,9.31
2018-10-02T06:02:09.450Z,9.28
2018-10-02T06:03:09.238Z,9.36
2018-10-02T06:04:09.221Z,9.25
2018-10-02T06:06:09.201Z,9.28
2018-10-02T06:07:09.395Z,9.28
2018-10-02T06:08:09.181Z,9.19
2018-10-02T06:09:09.168Z,9.11
2018-10-02T06:10:09.162Z,9.06
2018-10-02T06:11:09.148Z,9.08
2018-10-02T06:12:09.137Z,9.04
2018-10-02T06:13:09.128Z,9.10
2018-10-02T06:14:09.121Z,9.11
2018-10-02T06:15:09.107Z,9.10
2018-10-02T06:16:09.092Z,9.11
2018-10-02T06:17:09.155Z,9.18
2018-10-02T06:18:09.077Z,9.22
2018-10-02T06:19:09.065Z,9.21
2018-10-02T06:20:09.089Z,9.18
2018-10-02T06:21:09.040Z,9.25
2018-10-02T06:22:09.032Z,9.21
2018-10-02T06:23:09.018Z,9.31
2018-10-02T06:24:09.009Z,9.25
2018-10-02T06:25:08.999Z,9.31
2018-10-02T06:26:08.990Z,9.36
2018-10-02T06:27:08.977Z,9.43
2018-10-02T06:28:08.967Z,9.39
2018-10-02T06:29:08.955Z,9.40
2018-10-02T06:30:09.009Z,9.39
2018-10-02T06:31:08.937Z,9.36
2018-10-02T06:32:08.925Z,9.37
2018-10-02T06:33:08.915Z,9.28
2018-10-02T06:34:08.903Z,9.31
2018-10-02T06:35:08.892Z,9.28
2018-10-02T06:36:08.887Z,9.25
2018-10-02T06:37:08.874Z,9.28
2018-10-02T06:38:08.942Z,9.31
2018-10-02T06:39:08.850Z,9.36
2018-10-02T06:40:08.855Z,9.36
2018-10-02T06:41:09.075Z,9.31
2018-10-02T06:42:08.817Z,9.25
2018-10-02T06:43:08.807Z,9.29
2018-10-02T06:44:08.797Z,9.29
2018-10-02T06:45:08.869Z,9.34
2018-10-02T06:46:08.777Z,9.26
2018-10-02T06:47:08.765Z,9.32
2018-10-02T06:48:08.761Z,9.40
2018-10-02T06:49:08.747Z,9.26
2018-10-02T06:50:08.741Z,9.26
2018-10-02T06:51:08.752Z,9.31
2018-10-02T06:52:08.958Z,9.37
2018-10-02T06:53:08.704Z,9.40
2018-10-02T06:54:08.697Z,9.40
2018-10-02T06:55:08.681Z,9.40
2018-10-02T06:56:08.674Z,9.40
2018-10-02T06:57:08.739Z,9.43
2018-10-02T06:58:08.652Z,9.41
2018-10-02T06:59:08.643Z,9.39
2018-10-02T07:00:08.634Z,9.41
2018-10-02T07:01:08.618Z,9.41
2018-10-02T07:02:08.609Z,9.32
2018-10-02T07:03:08.596Z,9.26
2018-10-02T07:04:08.587Z,9.23
2018-10-02T07:05:08.576Z,9.31
2018-10-02T07:06:08.567Z,9.25
2018-10-02T07:07:08.561Z,9.29
2018-10-02T07:08:08.546Z,9.28
2018-10-02T07:09:08.686Z,9.39
2018-10-02T07:10:08.525Z,9.43
2018-10-02T07:11:08.513Z,9.39
2018-10-02T07:12:08.507Z,9.40
2018-10-02T07:13:08.528Z,9.46
2018-10-02T07:14:08.485Z,9.54
2018-10-02T07:15:08.697Z,9.55
2018-10-02T07:16:08.461Z,9.62
2018-10-02T07:17:08.451Z,9.61
2018-10-02T07:18:08.442Z,9.62
2018-10-02T07:19:08.437Z,9.64
2018-10-02T07:20:08.421Z,9.62
2018-10-02T07:21:08.476Z,9.56
2018-10-02T07:22:08.403Z,9.62
2018-10-02T07:23:08.388Z,9.61
2018-10-02T07:24:08.378Z,9.58
2018-10-02T07:25:08.368Z,9.66
2018-10-02T07:27:08.448Z,9.79
2018-10-02T07:28:08.391Z,9.86
2018-10-02T07:29:08.329Z,9.94
2018-10-02T07:30:08.517Z,9.94
2018-10-02T07:31:08.383Z,9.91
2018-10-02T07:32:08.300Z,9.91
2018-10-02T07:33:08.468Z,9.92
2018-10-02T07:34:08.279Z,9.86
2018-10-02T07:35:08.466Z,9.84
2018-10-02T07:36:08.260Z,9.84
2018-10-02T07:37:08.245Z,9.80
2018-10-02T07:38:08.234Z,9.86
2018-10-02T07:39:08.311Z,9.84
2018-10-02T07:40:08.212Z,9.83
2018-10-02T07:41:08.209Z,9.76
2018-10-02T07:42:08.198Z,9.76
2018-10-02T07:43:08.181Z,9.66
2018-10-02T07:44:08.171Z,9.64
2018-10-02T07:45:08.188Z,9.56
2018-10-02T07:46:08.152Z,9.46
2018-10-02T07:47:08.140Z,9.43
2018-10-02T07:48:08.134Z,9.46
2018-10-02T07:49:08.119Z,9.44
2018-10-02T07:50:08.113Z,9.51
2018-10-02T07:51:08.167Z,9.58
2018-10-02T07:52:08.089Z,9.51
2018-10-02T07:53:08.083Z,9.58
2018-10-02T07:54:08.073Z,9.54
2018-10-02T07:55:08.057Z,9.58
2018-10-02T07:56:08.047Z,9.58
2018-10-02T07:57:08.145Z,9.55
2018-10-02T07:58:08.027Z,9.44
2018-10-02T07:59:08.018Z,9.36
2018-10-02T08:00:08.067Z,9.40
2018-10-02T08:01:07.995Z,9.43
2018-10-02T08:02:07.985Z,9.43
2018-10-02T08:03:07.980Z,9.43
2018-10-02T08:04:07.969Z,9.40
2018-10-02T08:05:07.970Z,9.44
2018-10-02T08:06:08.017Z,9.51
2018-10-02T08:07:07.940Z,9.55
2018-10-02T08:08:07.929Z,9.56
2018-10-02T08:09:07.912Z,9.55
2018-10-02T08:10:07.902Z,9.62
2018-10-02T08:11:07.891Z,9.61
2018-10-02T08:12:07.927Z,9.56
2018-10-02T08:13:07.875Z,9.59
2018-10-02T08:14:07.861Z,9.59
2018-10-02T08:15:07.851Z,9.55
2018-10-02T08:16:07.844Z,9.54
2018-10-02T08:17:07.877Z,9.54
2018-10-02T08:19:07.809Z,9.51
2018-10-02T08:20:07.835Z,9.48
2018-10-02T08:21:07.812Z,9.46
2018-10-02T08:22:07.778Z,9.39
2018-10-02T08:23:07.768Z,9.40
2018-10-02T08:24:07.764Z,9.39
2018-10-02T08:25:07.748Z,9.48
2018-10-02T08:26:07.742Z,9.40
2018-10-02T08:27:07.852Z,9.44
2018-10-02T08:28:07.717Z,9.51
2018-10-02T08:29:07.710Z,9.40
2018-10-02T08:30:07.837Z,9.48
2018-10-02T08:31:07.687Z,9.51
2018-10-02T08:32:07.679Z,9.56
2018-10-02T08:33:07.781Z,9.58
2018-10-02T08:34:07.659Z,9.56
2018-10-02T08:35:07.724Z,9.56
2018-10-02T08:36:07.861Z,9.59
2018-10-02T08:37:07.626Z,9.54
2018-10-02T08:38:07.615Z,9.58
2018-10-02T08:39:07.677Z,9.56
2018-10-02T08:40:07.599Z,9.64
2018-10-02T08:41:07.591Z,9.62
2018-10-02T08:42:07.575Z,9.62
2018-10-02T08:43:07.570Z,9.68
2018-10-02T08:44:07.558Z,9.64
2018-10-02T08:45:07.666Z,9.69
2018-10-02T08:46:07.535Z,9.62
2018-10-02T08:47:07.524Z,9.66
2018-10-02T08:48:07.514Z,9.76
2018-10-02T08:49:07.508Z,9.73
2018-10-02T08:50:07.495Z,9.83
2018-10-02T08:51:07.686Z,9.73
2018-10-02T08:52:07.614Z,9.80
2018-10-02T08:53:07.464Z,9.72
2018-10-02T08:54:07.537Z,9.74
2018-10-02T08:56:07.433Z,9.66
2018-10-02T08:57:07.423Z,9.66
2018-10-02T08:58:07.413Z,9.72
2018-10-02T08:59:07.402Z,9.65
2018-10-02T09:00:07.642Z,9.65
2018-10-02T09:01:07.457Z,9.62
2018-10-02T09:02:07.382Z,9.68
2018-10-02T09:03:07.427Z,9.58
2018-10-02T09:04:07.352Z,9.56
2018-10-02T09:05:07.343Z,9.43
2018-10-02T09:06:07.334Z,9.39
2018-10-02T09:07:07.321Z,9.46
2018-10-02T09:08:07.310Z,9.36
2018-10-02T09:09:07.300Z,9.29
2018-10-02T09:10:07.293Z,9.26
2018-10-02T09:11:07.284Z,9.32
2018-10-02T09:12:07.269Z,9.21
2018-10-02T09:13:07.258Z,9.22
2018-10-02T09:14:07.456Z,9.10
2018-10-02T09:15:12.156Z,9.13
2018-10-02T09:16:07.357Z,9.11
2018-10-02T09:17:07.216Z,9.10
2018-10-02T09:18:07.208Z,9.08
2018-10-02T09:19:07.257Z,9.02
2018-10-02T09:20:07.184Z,9.06
2018-10-02T09:21:07.174Z,8.99
2018-10-02T09:22:07.257Z,8.97
2018-10-02T09:23:07.152Z,8.99
2018-10-02T09:24:07.143Z,9.02
2018-10-02T09:25:07.236Z,9.08
2018-10-02T09:26:07.120Z,9.14
2018-10-02T09:27:07.112Z,9.11
2018-10-02T09:28:07.300Z,9.08
2018-10-02T09:29:07.091Z,9.21
2018-10-02T09:30:07.393Z,9.16
2018-10-02T09:31:07.159Z,9.14
2018-10-02T09:32:07.060Z,9.22
2018-10-02T09:33:07.049Z,9.11
2018-10-02T09:34:07.037Z,9.11
2018-10-02T09:35:07.026Z,9.22
2018-10-02T09:36:07.018Z,9.22
2018-10-02T09:37:07.141Z,9.10
2018-10-02T09:38:06.999Z,9.19
2018-10-02T09:39:06.983Z,9.25
2018-10-02T09:40:07.075Z,9.18
2018-10-02T09:41:07.214Z,9.08
2018-10-02T09:42:06.952Z,9.11
2018-10-02T09:43:07.003Z,9.18
2018-10-02T09:44:07.015Z,9.14
2018-10-02T09:45:06.924Z,9.19
2018-10-02T09:46:06.909Z,9.25
2018-10-02T09:47:06.902Z,9.22
2018-10-02T09:48:06.888Z,9.31
2018-10-02T09:49:06.953Z,9.29
2018-10-02T09:50:06.867Z,9.31
2018-10-02T09:51:06.976Z,9.31
2018-10-02T09:52:06.852Z,9.26
2018-10-02T09:53:06.835Z,9.31
2018-10-02T09:54:06.825Z,9.28
2018-10-02T09:55:06.969Z,9.28
2018-10-02T09:56:06.806Z,9.26
2018-10-02T09:57:06.915Z,9.29
2018-10-02T09:58:06.784Z,9.32
2018-10-02T09:59:06.774Z,9.34
2018-10-02T10:00:06.761Z,9.31
2018-10-02T10:01:06.785Z,9.28
2018-10-02T10:02:06.744Z,9.41
2018-10-02T10:03:06.805Z,9.39
2018-10-02T10:04:06.775Z,9.43
2018-10-02T10:05:06.709Z,9.32
2018-10-02T10:06:06.708Z,9.29
2018-10-02T10:07:06.691Z,9.40
2018-10-02T10:08:06.680Z,9.40
2018-10-02T10:09:06.667Z,9.41
2018-10-02T10:10:06.657Z,9.50
2018-10-02T10:11:06.649Z,9.56
2018-10-02T10:12:06.636Z,9.56
2018-10-02T10:13:06.627Z,9.55
2018-10-02T10:14:06.619Z,9.65
2018-10-02T10:15:06.605Z,9.66
2018-10-02T10:16:06.596Z,9.61
2018-10-02T10:17:06.687Z,9.66
2018-10-02T10:18:06.575Z,9.59
2018-10-02T10:19:06.571Z,9.65
2018-10-02T10:20:06.554Z,9.58
2018-10-02T10:21:06.544Z,9.58
2018-10-02T10:22:06.534Z,9.56
2018-10-02T10:23:06.554Z,9.59
2018-10-02T10:24:06.517Z,9.69
2018-10-02T10:25:06.504Z,9.62
2018-10-02T10:26:06.493Z,9.64
2018-10-02T10:27:06.485Z,9.79
2018-10-02T10:28:06.474Z,9.79
2018-10-02T10:29:06.573Z,9.65
2018-10-02T10:30:06.456Z,9.74
2018-10-02T10:31:06.444Z,9.73
2018-10-02T10:32:06.435Z,9.72
2018-10-02T10:33:06.424Z,9.76
2018-10-02T10:34:06.413Z,9.80
2018-10-02T10:35:06.402Z,9.84
2018-10-02T10:36:06.392Z,9.84
2018-10-02T10:37:06.383Z,9.84
2018-10-02T10:38:06.373Z,9.79
2018-10-02T10:39:06.362Z,9.86
2018-10-02T10:40:06.352Z,9.89
2018-10-02T10:41:06.392Z,9.73
2018-10-02T10:42:06.332Z,9.82
2018-10-02T10:43:06.322Z,9.76
2018-10-02T10:44:06.311Z,9.74
2018-10-02T10:45:06.302Z,9.89
2018-10-02T10:46:06.293Z,9.92
2018-10-02T10:47:06.282Z,9.99
2018-10-02T10:48:06.276Z,9.86
2018-10-02T10:49:06.264Z,9.86
2018-10-02T10:50:06.253Z,9.87
2018-10-02T10:51:06.242Z,9.99
2018-10-02T10:52:06.232Z,10.04
2018-10-02T10:53:06.268Z,9.92
2018-10-02T10:54:06.212Z,9.95
2018-10-02T10:55:06.202Z,9.99
2018-10-02T10:56:06.195Z,9.99
2018-10-02T10:57:06.183Z,10.05
2018-10-02T10:58:06.175Z,10.09
2018-10-02T10:59:06.208Z,10.17
2018-10-02T11:00:06.152Z,10.02
2018-10-02T11:01:06.143Z,10.05
2018-10-02T11:02:06.145Z,10.16
2018-10-02T11:03:06.220Z,10.22
2018-10-02T11:04:06.114Z,10.25
2018-10-02T11:05:06.160Z,10.37
2018-10-02T11:06:06.096Z,10.34
2018-10-02T11:07:06.084Z,10.44
2018-10-02T11:08:06.074Z,10.41
2018-10-02T11:09:06.063Z,10.44
2018-10-02T11:10:06.057Z,10.44
2018-10-02T11:11:06.045Z,10.33
2018-10-02T11:12:06.036Z,10.31
2018-10-02T11:13:06.027Z,10.44
2018-10-02T11:14:06.103Z,10.51
2018-10-02T11:15:06.021Z,10.56
2018-10-02T11:16:06.001Z,10.48
2018-10-02T11:17:05.988Z,10.41
2018-10-02T11:18:05.981Z,10.42
2018-10-02T11:19:05.969Z,10.51
2018-10-02T11:20:05.960Z,10.44
2018-10-02T11:21:05.950Z,10.44
2018-10-02T11:22:05.941Z,10.46
2018-10-02T11:23:05.930Z,10.44
2018-10-02T11:24:05.988Z,10.49
2018-10-02T11:25:05.944Z,10.42
2018-10-02T11:26:06.048Z,10.42
2018-10-02T11:27:05.893Z,10.37
2018-10-02T11:28:05.883Z,10.37
2018-10-02T11:29:05.873Z,10.41
2018-10-02T11:30:05.864Z,10.51
2018-10-02T11:31:05.868Z,10.46
2018-10-02T11:32:05.847Z,10.53
2018-10-02T11:33:05.835Z,10.57
2018-10-02T11:34:05.825Z,10.53
2018-10-02T11:35:05.816Z,10.59
2018-10-02T11:36:05.805Z,10.51
2018-10-02T11:37:05.852Z,10.59
2018-10-02T11:38:05.787Z,10.64
2018-10-02T11:39:05.777Z,10.57
2018-10-02T11:40:05.770Z,10.54
2018-10-02T11:41:05.758Z,10.63
2018-10-02T11:42:05.749Z,10.54
2018-10-02T11:43:05.742Z,10.60
2018-10-02T11:44:05.804Z,10.54
2018-10-02T11:45:05.788Z,10.56
2018-10-02T11:46:05.711Z,10.71
2018-10-02T11:47:05.700Z,10.60
2018-10-02T11:48:05.691Z,10.71
2018-10-02T11:49:05.709Z,10.67
2018-10-02T11:50:05.674Z,10.67
2018-10-02T11:51:05.771Z,10.67
2018-10-02T11:52:05.654Z,10.60
2018-10-02T11:53:05.646Z,10.69
2018-10-02T11:54:05.634Z,10.64
2018-10-02T11:55:05.638Z,10.72
2018-10-02T11:56:05.614Z,10.67
2018-10-02T11:57:05.604Z,10.64
2018-10-02T11:58:05.595Z,10.67
2018-10-02T11:59:05.585Z,10.67
2018-10-02T12:00:05.576Z,10.68
2018-10-02T12:01:05.703Z,10.63
2018-10-02T12:02:05.557Z,10.78
2018-10-02T12:03:05.546Z,10.71
2018-10-02T12:04:05.538Z,10.71
2018-10-02T12:05:05.529Z,10.69
2018-10-02T12:06:05.521Z,10.75
2018-10-02T12:07:05.509Z,10.72
2018-10-02T12:08:05.499Z,10.63
2018-10-02T12:09:05.574Z,10.72
2018-10-02T12:10:05.479Z,10.71
2018-10-02T12:11:05.471Z,10.75
2018-10-02T12:12:05.459Z,10.72
2018-10-02T12:13:05.635Z,10.78
2018-10-02T12:14:05.574Z,10.71
2018-10-02T12:15:05.471Z,10.75
2018-10-02T12:16:05.422Z,10.72
2018-10-02T12:17:05.413Z,10.86
2018-10-02T12:18:05.403Z,10.84
2018-10-02T12:19:05.393Z,10.86
2018-10-02T12:20:05.382Z,10.75
2018-10-02T12:21:05.377Z,10.92
2018-10-02T12:22:05.369Z,10.86
2018-10-02T12:23:05.354Z,10.86
2018-10-02T12:24:05.344Z,10.99
2018-10-02T12:25:05.339Z,10.99
2018-10-02T12:26:05.328Z,10.97
2018-10-02T12:27:05.317Z,11.02
2018-10-02T12:28:05.305Z,11.00
2018-10-02T12:29:05.297Z,11.02
2018-10-02T12:30:05.287Z,11.00
2018-10-02T12:31:05.327Z,11.07
2018-10-02T12:32:05.277Z,11.00
2018-10-02T12:33:05.260Z,11.05
2018-10-02T12:34:05.251Z,11.08
2018-10-02T12:35:05.239Z,11.05
2018-10-02T12:36:05.232Z,11.12
2018-10-02T12:37:05.221Z,11.07
2018-10-02T12:38:05.212Z,11.15
2018-10-02T12:39:05.204Z,11.04
2018-10-02T12:40:05.193Z,11.11
2018-10-02T12:41:05.184Z,11.11
2018-10-02T12:42:05.174Z,11.15
2018-10-02T12:43:05.167Z,11.17
2018-10-02T12:44:05.155Z,11.26
2018-10-02T12:45:05.146Z,11.35
2018-10-02T12:46:05.191Z,11.33
2018-10-02T12:47:05.145Z,11.37
2018-10-02T12:48:05.117Z,11.29
2018-10-02T12:49:05.108Z,11.37
2018-10-02T12:50:05.128Z,11.36
2018-10-02T12:51:05.089Z,11.47
2018-10-02T12:52:05.085Z,11.36
2018-10-02T12:53:05.074Z,11.45
2018-10-02T12:54:05.062Z,11.37
2018-10-02T12:55:05.055Z,11.44
2018-10-02T12:56:05.042Z,11.37
2018-10-02T12:57:05.040Z,11.44
2018-10-02T12:58:05.025Z,11.43
2018-10-02T12:59:05.014Z,11.37
2018-10-02T13:00:05.007Z,11.37
2018-10-02T13:01:04.996Z,11.43
2018-10-02T13:02:04.987Z,11.55
2018-10-02T13:03:04.979Z,11.50
2018-10-02T13:04:04.968Z,11.45
2018-10-02T13:05:04.960Z,11.60
2018-10-02T13:06:04.950Z,11.62
2018-10-02T13:07:05.002Z,11.52
2018-10-02T13:08:04.932Z,11.54
2018-10-02T13:09:04.923Z,11.51
2018-10-02T13:10:04.925Z,11.57
2018-10-02T13:11:04.903Z,11.55
2018-10-02T13:12:04.894Z,11.57
2018-10-02T13:13:04.932Z,11.54
2018-10-02T13:14:04.876Z,11.59
2018-10-02T13:15:04.869Z,11.59
2018-10-02T13:16:04.859Z,11.57
2018-10-02T13:17:04.850Z,11.57
2018-10-02T13:18:04.840Z,11.59